createdAt,value
2022-09-07T00:00:57.778Z,16.03
2022-09-07T00:01:37.597Z,15.93
2022-09-07T00:02:24.594Z,16.00
2022-09-07T00:03:18.728Z,16.11
2022-09-07T00:04:12.603Z,16.14
2022-09-07T00:05:06.558Z,16.05
2022-09-07T00:06:02.560Z,16.18
2022-09-07T00:06:56.544Z,16.15
2022-09-07T00:07:43.580Z,16.23
2022-09-07T00:08:17.633Z,16.22
2022-09-07T00:09:04.551Z,16.15
2022-09-07T00:09:38.750Z,16.26
2022-09-07T00:10:25.568Z,16.26
2022-09-07T00:11:11.648Z,16.24
2022-09-07T00:11:58.539Z,16.15
2022-09-07T00:12:32.620Z,16.24
2022-09-07T00:13:14.598Z,16.28
2022-09-07T00:13:55.636Z,16.34
2022-09-07T00:14:35.584Z,16.34
2022-09-07T00:15:16.694Z,16.36
2022-09-07T00:15:57.623Z,16.35
2022-09-07T00:16:38.752Z,16.34
2022-09-07T00:17:18.553Z,16.30
2022-09-07T00:17:58.615Z,16.35
2022-09-07T00:18:43.680Z,16.42
2022-09-07T00:19:26.600Z,16.31
2022-09-07T00:20:07.539Z,16.37
2022-09-07T00:20:47.600Z,16.43
2022-09-07T00:21:28.576Z,16.38
2022-09-07T00:22:08.636Z,16.46
2022-09-07T00:22:48.542Z,16.44
2022-09-07T00:23:28.791Z,16.39
2022-09-07T00:24:09.591Z,16.46
2022-09-07T00:24:49.634Z,16.49
2022-09-07T00:25:31.947Z,16.45
2022-09-07T00:26:20.691Z,16.42
2022-09-07T00:27:03.552Z,16.42
2022-09-07T00:27:43.820Z,16.45
2022-09-07T00:28:24.635Z,16.27
2022-09-07T00:29:07.978Z,16.38
2022-09-07T00:29:48.641Z,16.39
2022-09-07T00:30:28.666Z,16.38
2022-09-07T00:31:09.580Z,16.41
2022-09-07T00:31:49.673Z,16.39
2022-09-07T00:32:29.534Z,16.38
2022-09-07T00:33:09.589Z,16.44
2022-09-07T00:33:50.515Z,16.45
2022-09-07T00:34:30.639Z,16.41
2022-09-07T00:35:11.570Z,16.31
2022-09-07T00:35:51.874Z,16.38
2022-09-07T00:36:32.575Z,16.40
2022-09-07T00:37:12.650Z,16.38
2022-09-07T00:37:52.528Z,16.38
2022-09-07T00:38:32.651Z,16.35
2022-09-07T00:39:13.537Z,16.39
2022-09-07T00:39:53.639Z,16.30
2022-09-07T00:40:34.536Z,16.36
2022-09-07T00:41:15.758Z,16.36
2022-09-07T00:41:55.537Z,16.40
2022-09-07T00:42:35.786Z,16.39
2022-09-07T00:43:23.540Z,16.31
2022-09-07T00:44:25.608Z,16.29
2022-09-07T00:45:14.522Z,16.26
2022-09-07T00:45:54.553Z,16.24
2022-09-07T00:46:36.491Z,16.27
2022-09-07T00:47:50.532Z,16.28
2022-09-07T00:48:25.585Z,16.15
2022-09-07T00:49:30.517Z,16.19
2022-09-07T00:50:10.621Z,16.11
2022-09-07T00:51:02.542Z,16.10
2022-09-07T00:51:43.644Z,16.15
2022-09-07T00:52:31.530Z,16.20
2022-09-07T00:53:29.650Z,16.15
2022-09-07T00:54:23.527Z,16.16
2022-09-07T00:55:06.739Z,16.12
2022-09-07T00:55:55.509Z,16.00
2022-09-07T00:56:40.546Z,16.04
2022-09-07T00:57:37.513Z,15.89
2022-09-07T00:58:34.501Z,16.03
2022-09-07T00:59:31.516Z,16.02
2022-09-07T01:00:25.518Z,16.02
2022-09-07T01:01:20.657Z,15.99
2022-09-07T01:02:01.611Z,16.03
2022-09-07T01:02:41.818Z,16.00
2022-09-07T01:03:42.513Z,15.80
2022-09-07T01:04:23.622Z,15.85
2022-09-07T01:05:13.505Z,15.89
2022-09-07T01:06:26.563Z,15.87
2022-09-07T01:07:07.546Z,15.78
2022-09-07T01:07:47.572Z,15.66
2022-09-07T01:08:28.530Z,15.72
2022-09-07T01:09:28.579Z,15.69
2022-09-07T01:10:09.493Z,15.64
2022-09-07T01:10:49.592Z,15.69
2022-09-07T01:11:30.496Z,15.64
2022-09-07T01:12:17.542Z,15.68
2022-09-07T01:13:14.513Z,15.62
2022-09-07T01:14:08.492Z,15.65
2022-09-07T01:15:05.505Z,15.69
2022-09-07T01:16:17.560Z,15.72
2022-09-07T01:17:47.509Z,15.57
2022-09-07T01:19:13.497Z,15.60
2022-09-07T01:20:40.506Z,15.58
2022-09-07T01:21:45.525Z,15.58
2022-09-07T01:22:48.526Z,15.63
2022-09-07T01:24:11.507Z,15.69
2022-09-07T01:25:36.488Z,15.63
2022-09-07T01:27:30.505Z,15.60
2022-09-07T01:28:28.592Z,15.61
2022-09-07T01:29:52.585Z,15.55
2022-09-07T01:30:34.507Z,15.41
2022-09-07T01:31:54.566Z,15.46
2022-09-07T01:33:11.492Z,15.43
2022-09-07T01:34:14.576Z,15.34
2022-09-07T01:34:50.621Z,15.44
2022-09-07T01:35:49.485Z,15.47
2022-09-07T01:36:40.566Z,15.48
2022-09-07T01:37:57.210Z,15.54
2022-09-07T01:38:54.595Z,15.56
2022-09-07T01:39:58.556Z,15.55
2022-09-07T01:41:05.629Z,15.47
2022-09-07T01:42:05.460Z,15.62
2022-09-07T01:42:55.573Z,15.48
2022-09-07T01:44:03.463Z,15.56
2022-09-07T01:45:09.545Z,15.50
2022-09-07T01:46:04.526Z,15.53
2022-09-07T01:47:19.486Z,15.43
2022-09-07T01:48:19.472Z,15.39
2022-09-07T01:49:51.470Z,15.29
2022-09-07T01:50:52.512Z,15.38
2022-09-07T01:51:38.521Z,15.35
2022-09-07T01:52:48.483Z,15.36
2022-09-07T01:53:48.587Z,15.48
2022-09-07T01:54:37.470Z,15.49
2022-09-07T01:55:29.537Z,15.27
2022-09-07T01:56:25.498Z,15.33
2022-09-07T01:57:15.563Z,15.44
2022-09-07T01:58:17.454Z,15.36
2022-09-07T01:59:12.544Z,15.37
2022-09-07T02:00:06.456Z,15.28
2022-09-07T02:00:53.791Z,15.21
2022-09-07T02:01:53.547Z,15.11
2022-09-07T02:02:46.565Z,15.22
2022-09-07T02:03:39.445Z,15.26
2022-09-07T02:04:34.528Z,15.12
2022-09-07T02:05:41.462Z,15.17
2022-09-07T02:06:46.564Z,15.26
2022-09-07T02:07:51.477Z,15.28
2022-09-07T02:08:40.522Z,15.27
2022-09-07T02:09:39.455Z,15.27
2022-09-07T02:10:25.556Z,15.29
2022-09-07T02:11:15.449Z,15.36
2022-09-07T02:11:55.529Z,15.38
2022-09-07T02:13:17.482Z,15.30
2022-09-07T02:14:14.652Z,15.36
2022-09-07T02:14:59.445Z,15.32
2022-09-07T02:16:20.551Z,15.41
2022-09-07T02:17:15.430Z,15.46
2022-09-07T02:18:00.592Z,15.49
2022-09-07T02:18:48.496Z,15.44
2022-09-07T02:19:31.508Z,15.43
2022-09-07T02:20:28.464Z,15.37
2022-09-07T02:21:09.508Z,15.40
2022-09-07T02:21:56.433Z,15.38
2022-09-07T02:22:40.544Z,15.38
2022-09-07T02:23:29.445Z,15.27
2022-09-07T02:24:33.447Z,15.38
2022-09-07T02:25:10.521Z,15.37
2022-09-07T02:26:06.426Z,15.37
2022-09-07T02:26:42.565Z,15.27
2022-09-07T02:27:52.445Z,15.28
2022-09-07T02:28:32.780Z,15.32
2022-09-07T02:29:19.431Z,15.36
2022-09-07T02:30:00.461Z,15.24
2022-09-07T02:30:54.454Z,15.32
2022-09-07T02:31:48.443Z,15.28
2022-09-07T02:32:42.465Z,15.38
2022-09-07T02:33:36.427Z,15.43
2022-09-07T02:34:30.462Z,15.40
2022-09-07T02:35:17.529Z,15.35
2022-09-07T02:35:52.536Z,15.40
2022-09-07T02:36:46.405Z,15.45
2022-09-07T02:37:21.484Z,15.49
2022-09-07T02:38:11.434Z,15.46
2022-09-07T02:38:45.500Z,15.42
2022-09-07T02:39:32.468Z,15.49
2022-09-07T02:40:06.988Z,15.40
2022-09-07T02:40:47.487Z,15.45
2022-09-07T02:41:44.524Z,15.49
2022-09-07T02:42:24.419Z,15.40
2022-09-07T02:43:10.497Z,15.33
2022-09-07T02:43:50.466Z,15.36
2022-09-07T02:44:35.524Z,15.19
2022-09-07T02:45:18.437Z,15.21
2022-09-07T02:46:56.463Z,15.12
2022-09-07T02:48:17.410Z,15.08
2022-09-07T02:49:39.420Z,15.08
2022-09-07T02:51:17.425Z,15.13
2022-09-07T02:52:32.457Z,15.13
2022-09-07T02:53:42.431Z,15.19
2022-09-07T02:55:23.420Z,14.95
2022-09-07T02:56:41.411Z,15.14
2022-09-07T02:58:33.461Z,15.23
2022-09-07T03:00:10.440Z,15.25
2022-09-07T03:01:42.551Z,15.25
2022-09-07T03:02:49.509Z,15.22
2022-09-07T03:04:15.464Z,15.20
2022-09-07T03:05:30.408Z,15.28
2022-09-07T03:06:40.448Z,15.24
2022-09-07T03:07:56.402Z,15.21
2022-09-07T03:09:02.385Z,15.24
2022-09-07T03:09:46.471Z,15.24
2022-09-07T03:10:26.482Z,15.22
2022-09-07T03:11:07.404Z,15.14
2022-09-07T03:11:47.455Z,15.20
2022-09-07T03:12:28.416Z,15.16
2022-09-07T03:13:08.501Z,15.19
2022-09-07T03:13:48.389Z,15.10
2022-09-07T03:14:33.720Z,15.06
2022-09-07T03:15:15.438Z,15.18
2022-09-07T03:15:56.357Z,15.08
2022-09-07T03:16:36.389Z,15.08
2022-09-07T03:17:17.597Z,15.00
2022-09-07T03:17:58.409Z,14.96
2022-09-07T03:18:39.477Z,14.99
2022-09-07T03:19:19.399Z,14.97
2022-09-07T03:19:59.470Z,14.82
2022-09-07T03:20:39.405Z,14.78
2022-09-07T03:21:19.458Z,14.83
2022-09-07T03:22:00.368Z,14.83
2022-09-07T03:22:40.481Z,14.88
2022-09-07T03:23:21.396Z,14.85
2022-09-07T03:24:01.465Z,14.78
2022-09-07T03:24:43.421Z,14.81
2022-09-07T03:25:24.459Z,14.83
2022-09-07T03:26:04.424Z,14.74
2022-09-07T03:26:50.507Z,14.62
2022-09-07T03:27:30.378Z,14.70
2022-09-07T03:28:10.482Z,14.72
2022-09-07T03:28:50.405Z,14.59
2022-09-07T03:29:30.513Z,14.69
2022-09-07T03:30:13.390Z,14.70
2022-09-07T03:30:53.480Z,14.68
2022-09-07T03:31:33.404Z,14.67
2022-09-07T03:32:13.434Z,14.57
2022-09-07T03:32:54.381Z,14.69
2022-09-07T03:33:34.486Z,14.45
2022-09-07T03:34:15.373Z,14.57
2022-09-07T03:34:55.471Z,14.59
2022-09-07T03:35:35.378Z,14.54
2022-09-07T03:36:15.482Z,14.44
2022-09-07T03:36:55.481Z,14.52
2022-09-07T03:37:36.464Z,14.47
2022-09-07T03:38:16.373Z,14.45
2022-09-07T03:38:56.500Z,14.37
2022-09-07T03:39:37.405Z,14.43
2022-09-07T03:40:20.436Z,14.42
2022-09-07T03:41:12.372Z,14.48
2022-09-07T03:41:52.659Z,14.46
2022-09-07T03:42:33.391Z,14.42
2022-09-07T03:43:13.472Z,14.48
2022-09-07T03:43:55.384Z,14.39
2022-09-07T03:44:35.492Z,14.39
2022-09-07T03:45:17.408Z,14.30
2022-09-07T03:45:57.502Z,14.32
2022-09-07T03:46:38.371Z,14.35
2022-09-07T03:47:18.482Z,14.35
2022-09-07T03:48:03.772Z,14.38
2022-09-07T03:48:45.572Z,14.35
2022-09-07T03:49:25.370Z,14.36
2022-09-07T03:50:05.460Z,14.28
2022-09-07T03:50:45.372Z,14.25
2022-09-07T03:51:25.436Z,14.27
2022-09-07T03:52:06.370Z,14.20
2022-09-07T03:52:46.413Z,14.28
2022-09-07T03:53:27.446Z,14.26
2022-09-07T03:54:07.482Z,14.17
2022-09-07T03:54:47.345Z,14.28
2022-09-07T03:55:27.439Z,14.19
2022-09-07T03:56:12.365Z,14.26
2022-09-07T03:56:52.428Z,14.20
2022-09-07T03:57:33.359Z,14.27
2022-09-07T03:58:13.412Z,14.20
2022-09-07T03:58:55.395Z,14.34
2022-09-07T03:59:35.421Z,14.27
2022-09-07T04:00:16.340Z,14.33
2022-09-07T04:00:56.611Z,14.34
2022-09-07T04:01:36.400Z,14.41
2022-09-07T04:02:16.498Z,14.41
2022-09-07T04:02:56.405Z,14.47
2022-09-07T04:03:36.462Z,14.45
2022-09-07T04:04:17.391Z,14.47
2022-09-07T04:04:57.521Z,14.42
2022-09-07T04:05:39.365Z,14.44
2022-09-07T04:06:20.499Z,14.38
2022-09-07T04:07:01.341Z,14.48
2022-09-07T04:07:41.412Z,14.46
2022-09-07T04:08:22.334Z,14.41
2022-09-07T04:09:02.572Z,14.39
2022-09-07T04:09:43.375Z,14.47
2022-09-07T04:10:23.410Z,14.46
2022-09-07T04:11:05.344Z,14.42
2022-09-07T04:11:45.412Z,14.41
2022-09-07T04:12:25.332Z,14.35
2022-09-07T04:13:05.422Z,14.40
2022-09-07T04:13:46.349Z,14.39
2022-09-07T04:14:26.428Z,14.30
2022-09-07T04:15:07.361Z,14.34
2022-09-07T04:15:50.945Z,14.14
2022-09-07T04:16:34.381Z,14.30
2022-09-07T04:17:14.512Z,14.31
2022-09-07T04:17:55.334Z,14.34
2022-09-07T04:18:35.415Z,14.38
2022-09-07T04:19:15.329Z,14.35
2022-09-07T04:19:56.048Z,14.27
2022-09-07T04:20:38.357Z,14.27
2022-09-07T04:21:19.412Z,14.30
2022-09-07T04:22:00.349Z,14.34
2022-09-07T04:22:40.419Z,14.30
2022-09-07T04:23:21.329Z,14.30
2022-09-07T04:24:02.421Z,14.27
2022-09-07T04:24:42.323Z,14.30
2022-09-07T04:25:23.409Z,14.26
2022-09-07T04:26:04.356Z,14.30
2022-09-07T04:26:44.441Z,14.28
2022-09-07T04:27:25.325Z,14.36
2022-09-07T04:28:05.368Z,14.28
2022-09-07T04:28:45.398Z,14.35
2022-09-07T04:29:25.452Z,14.39
2022-09-07T04:30:05.320Z,14.41
2022-09-07T04:30:45.446Z,14.34
2022-09-07T04:31:26.413Z,14.33
2022-09-07T04:32:06.386Z,14.37
2022-09-07T04:32:46.314Z,14.34
2022-09-07T04:33:26.401Z,14.42
2022-09-07T04:34:07.307Z,14.41
2022-09-07T04:34:47.409Z,14.40
2022-09-07T04:35:27.317Z,14.36
2022-09-07T04:36:08.419Z,14.32
2022-09-07T04:36:49.358Z,14.36
2022-09-07T04:37:29.508Z,14.34
2022-09-07T04:38:10.309Z,14.27
2022-09-07T04:38:51.416Z,14.39
2022-09-07T04:39:32.328Z,14.30
2022-09-07T04:40:12.436Z,14.43
2022-09-07T04:40:52.305Z,14.46
2022-09-07T04:41:33.492Z,14.46
2022-09-07T04:42:14.441Z,14.40
2022-09-07T04:42:54.374Z,14.39
2022-09-07T04:43:36.311Z,14.43
2022-09-07T04:44:17.386Z,14.42
2022-09-07T04:44:57.310Z,14.40
2022-09-07T04:45:38.422Z,14.36
2022-09-07T04:46:29.348Z,14.36
2022-09-07T04:47:09.409Z,14.29
2022-09-07T04:47:55.329Z,14.40
2022-09-07T04:48:35.426Z,14.21
2022-09-07T04:49:17.311Z,14.19
2022-09-07T04:50:00.404Z,14.28
2022-09-07T04:50:41.297Z,14.32
2022-09-07T04:51:21.368Z,14.20
2022-09-07T04:52:01.299Z,14.14
2022-09-07T04:52:41.366Z,14.07
2022-09-07T04:53:22.327Z,14.04
2022-09-07T04:54:04.410Z,14.12
2022-09-07T04:54:45.327Z,14.05
2022-09-07T04:55:25.420Z,13.99
2022-09-07T04:56:06.345Z,14.10
2022-09-07T04:56:46.398Z,14.12
2022-09-07T04:57:30.324Z,14.18
2022-09-07T04:58:10.405Z,14.15
2022-09-07T04:58:52.327Z,14.27
2022-09-07T04:59:32.426Z,14.23
2022-09-07T05:00:15.320Z,14.26
2022-09-07T05:00:55.449Z,14.21
2022-09-07T05:01:36.362Z,14.18
2022-09-07T05:02:16.441Z,14.30
2022-09-07T05:02:56.306Z,14.24
2022-09-07T05:03:37.381Z,14.38
2022-09-07T05:04:18.340Z,14.42
2022-09-07T05:05:02.072Z,14.37
2022-09-07T05:05:45.325Z,14.46
2022-09-07T05:06:26.365Z,14.43
2022-09-07T05:07:06.308Z,14.37
2022-09-07T05:07:46.392Z,14.46
2022-09-07T05:08:26.398Z,14.46
2022-09-07T05:09:07.389Z,14.38
2022-09-07T05:09:48.345Z,14.45
2022-09-07T05:10:28.388Z,14.42
2022-09-07T05:11:08.303Z,14.49
2022-09-07T05:11:48.623Z,14.49
2022-09-07T05:12:28.277Z,14.40
2022-09-07T05:13:08.370Z,14.50
2022-09-07T05:13:49.289Z,14.58
2022-09-07T05:14:29.365Z,14.52
2022-09-07T05:15:11.356Z,14.49
2022-09-07T05:15:51.345Z,14.54
2022-09-07T05:16:32.413Z,14.34
2022-09-07T05:17:14.460Z,14.60
2022-09-07T05:17:56.289Z,14.48
2022-09-07T05:18:51.298Z,14.63
2022-09-07T05:19:45.277Z,14.66
2022-09-07T05:20:32.312Z,14.70
2022-09-07T05:21:19.436Z,14.75
2022-09-07T05:22:14.285Z,14.76
2022-09-07T05:22:48.344Z,14.77
2022-09-07T05:23:35.300Z,14.85
2022-09-07T05:24:09.402Z,14.79
2022-09-07T05:24:56.293Z,14.77
2022-09-07T05:25:33.609Z,14.73
2022-09-07T05:26:15.420Z,14.83
2022-09-07T05:26:55.360Z,14.83
2022-09-07T05:27:35.320Z,14.88
2022-09-07T05:28:19.392Z,14.91
2022-09-07T05:31:41.296Z,14.91
2022-09-07T05:32:15.412Z,14.96
2022-09-07T05:33:03.264Z,14.87
2022-09-07T05:34:44.285Z,14.94
2022-09-07T05:35:21.437Z,14.93
2022-09-07T05:36:13.260Z,14.97
2022-09-07T05:36:54.300Z,14.95
2022-09-07T05:37:48.283Z,14.93
2022-09-07T05:38:43.268Z,15.02
2022-09-07T05:39:37.328Z,15.10
2022-09-07T05:40:31.265Z,15.07
2022-09-07T05:41:34.288Z,15.11
2022-09-07T05:42:15.394Z,15.04
2022-09-07T05:42:55.345Z,15.04
2022-09-07T05:44:45.606Z,15.07
2022-09-07T05:45:26.582Z,15.22
2022-09-07T05:46:07.424Z,15.13
2022-09-07T05:46:48.277Z,15.11
2022-09-07T05:47:35.281Z,15.11
2022-09-07T05:48:29.385Z,15.16
2022-09-07T05:49:23.309Z,15.20
2022-09-07T05:50:20.276Z,15.26
2022-09-07T05:51:21.262Z,15.20
2022-09-07T05:52:15.278Z,15.23
2022-09-07T05:52:56.279Z,15.11
2022-09-07T05:53:36.367Z,15.19
2022-09-07T05:54:18.265Z,15.28
2022-09-07T05:55:07.720Z,15.23
2022-09-07T05:55:54.272Z,15.33
2022-09-07T05:56:34.342Z,15.33
2022-09-07T05:57:19.258Z,15.30
2022-09-07T05:58:06.321Z,15.18
2022-09-07T05:59:03.246Z,15.32
2022-09-07T05:59:57.265Z,15.33
2022-09-07T06:00:51.279Z,15.44
2022-09-07T06:01:45.283Z,15.46
2022-09-07T06:02:39.969Z,15.36
2022-09-07T06:03:27.361Z,15.51
2022-09-07T06:04:01.306Z,15.44
2022-09-07T06:04:49.253Z,15.41
2022-09-07T06:05:23.316Z,15.41
2022-09-07T06:06:23.263Z,15.57
2022-09-07T06:08:04.242Z,15.68
2022-09-07T06:08:46.287Z,15.59
2022-09-07T06:10:54.247Z,15.74
2022-09-07T06:11:48.238Z,15.66
2022-09-07T06:12:44.464Z,15.88
2022-09-07T06:13:42.273Z,15.88
2022-09-07T06:14:23.322Z,15.81
2022-09-07T06:15:04.865Z,15.71
2022-09-07T06:15:45.237Z,15.81
2022-09-07T06:16:26.429Z,15.80
2022-09-07T06:17:07.219Z,15.88
2022-09-07T06:17:47.289Z,15.73
2022-09-07T06:18:27.245Z,15.76
2022-09-07T06:19:12.311Z,15.81
2022-09-07T06:19:52.261Z,15.84
2022-09-07T06:20:32.304Z,15.79
2022-09-07T06:21:25.224Z,15.78
2022-09-07T06:22:21.261Z,15.76
2022-09-07T06:23:15.220Z,15.85
2022-09-07T06:24:09.254Z,15.73
2022-09-07T06:25:03.254Z,15.81
2022-09-07T06:26:03.230Z,15.91
2022-09-07T06:26:57.263Z,15.89
2022-09-07T06:27:51.261Z,15.92
2022-09-07T06:28:57.928Z,15.80
2022-09-07T06:29:52.214Z,15.90
2022-09-07T06:30:33.245Z,15.98
2022-09-07T06:31:23.636Z,15.98
2022-09-07T06:33:17.072Z,16.01
2022-09-07T06:34:04.216Z,15.98
2022-09-07T06:34:44.314Z,15.97
2022-09-07T06:35:25.217Z,16.05
2022-09-07T06:36:08.249Z,16.12
2022-09-07T06:36:42.298Z,16.01
2022-09-07T06:37:29.213Z,16.04
2022-09-07T06:38:03.298Z,16.08
2022-09-07T06:38:51.225Z,16.00
2022-09-07T06:39:25.473Z,16.06
2022-09-07T06:40:14.289Z,16.17
2022-09-07T06:40:48.784Z,16.17
2022-09-07T06:42:35.360Z,16.20
2022-09-07T06:43:16.213Z,16.28
2022-09-07T06:43:56.337Z,16.29
2022-09-07T06:44:38.198Z,16.32
2022-09-07T06:45:21.303Z,16.31
2022-09-07T06:47:40.320Z,16.34
2022-09-07T06:48:28.336Z,16.31
2022-09-07T06:49:02.333Z,16.17
2022-09-07T06:49:49.194Z,16.33
2022-09-07T06:50:23.296Z,16.33
2022-09-07T06:51:16.196Z,16.38
2022-09-07T06:51:50.309Z,16.45
2022-09-07T06:53:41.664Z,16.43
2022-09-07T06:55:28.304Z,16.46
2022-09-07T06:56:12.235Z,16.43
2022-09-07T06:56:52.306Z,16.54
2022-09-07T06:57:33.377Z,16.40
2022-09-07T06:58:13.322Z,16.49
2022-09-07T06:58:54.218Z,16.46
2022-09-07T06:59:34.347Z,16.53
2022-09-07T07:00:16.211Z,16.56
2022-09-07T07:00:56.592Z,16.51
2022-09-07T07:01:39.245Z,16.55
2022-09-07T07:02:19.562Z,16.53
2022-09-07T07:03:00.350Z,16.62
2022-09-07T07:03:40.403Z,16.64
2022-09-07T07:04:21.177Z,16.61
2022-09-07T07:05:01.263Z,16.62
2022-09-07T07:05:41.195Z,16.56
2022-09-07T07:06:23.376Z,16.53
2022-09-07T07:07:04.212Z,16.63
2022-09-07T07:07:57.245Z,16.70
2022-09-07T07:09:45.334Z,16.68
2022-09-07T07:10:25.336Z,16.78
2022-09-07T07:11:11.290Z,16.76
2022-09-07T07:11:54.204Z,16.77
2022-09-07T07:14:04.217Z,16.84
2022-09-07T07:14:58.188Z,16.86
2022-09-07T07:15:52.195Z,16.85
2022-09-07T07:16:46.197Z,16.95
2022-09-07T07:17:40.201Z,16.90
2022-09-07T07:18:34.401Z,16.97
2022-09-07T07:19:21.219Z,16.96
2022-09-07T07:19:55.276Z,16.97
2022-09-07T07:20:44.196Z,16.99
2022-09-07T07:21:21.230Z,17.04
2022-09-07T07:23:03.172Z,17.05
2022-09-07T07:23:37.313Z,17.16
2022-09-07T07:24:10.930Z,17.16
2022-09-07T07:24:52.233Z,17.13
2022-09-07T07:25:26.357Z,17.14
2022-09-07T07:26:26.815Z,17.17
2022-09-07T07:27:07.181Z,17.07
2022-09-07T07:27:42.295Z,17.22
2022-09-07T07:29:18.712Z,17.31
2022-09-07T07:30:00.206Z,17.35
2022-09-07T07:30:33.904Z,17.30
2022-09-07T07:31:21.201Z,17.41
2022-09-07T07:31:54.932Z,17.27
2022-09-07T07:32:42.167Z,17.33
2022-09-07T07:33:15.996Z,17.31
2022-09-07T07:34:04.170Z,17.34
2022-09-07T07:34:37.888Z,17.40
2022-09-07T07:35:26.238Z,17.42
2022-09-07T07:36:22.703Z,17.40
2022-09-07T07:37:10.114Z,17.51
2022-09-07T07:37:43.850Z,17.55
2022-09-07T07:40:34.181Z,17.58
2022-09-07T07:42:19.105Z,17.61
2022-09-07T07:43:01.388Z,17.64
2022-09-07T07:44:04.550Z,17.68
2022-09-07T07:44:45.272Z,17.65
2022-09-07T07:46:29.232Z,17.74
2022-09-07T07:47:09.185Z,17.78
2022-09-07T07:47:50.084Z,17.76
2022-09-07T07:48:31.097Z,17.81
2022-09-07T07:49:11.150Z,17.91
2022-09-07T07:50:30.591Z,17.96
2022-09-07T07:50:52.129Z,18.00
2022-09-07T07:54:08.109Z,18.19
2022-09-07T07:55:42.428Z,18.18
2022-09-07T07:56:17.105Z,18.14
2022-09-07T07:57:04.310Z,18.21
2022-09-07T07:57:39.209Z,18.27
2022-09-07T07:58:27.129Z,18.23
2022-09-07T07:59:01.605Z,18.31
2022-09-07T07:59:49.084Z,18.33
2022-09-07T08:00:37.417Z,18.35
2022-09-07T08:01:30.133Z,18.35
2022-09-07T08:02:11.219Z,18.42
2022-09-07T08:03:05.103Z,18.37
2022-09-07T08:04:00.134Z,18.42
2022-09-07T08:04:54.115Z,18.41
2022-09-07T08:05:51.132Z,18.44
2022-09-07T08:06:45.090Z,18.45
2022-09-07T08:07:32.145Z,18.39
2022-09-07T08:08:06.195Z,18.41
2022-09-07T08:08:54.097Z,18.40
2022-09-07T08:09:28.155Z,18.46
2022-09-07T08:10:18.110Z,18.46
2022-09-07T08:10:52.286Z,18.52
2022-09-07T08:11:41.118Z,18.56
2022-09-07T08:12:17.224Z,18.56
2022-09-07T08:12:58.129Z,18.56
2022-09-07T08:13:56.081Z,18.59
2022-09-07T08:14:50.099Z,18.62
2022-09-07T08:15:44.096Z,18.66
2022-09-07T08:16:38.128Z,18.66
2022-09-07T08:17:32.122Z,18.71
2022-09-07T08:18:21.165Z,18.69
2022-09-07T08:18:55.217Z,18.67
2022-09-07T08:19:42.093Z,18.77
2022-09-07T08:20:16.205Z,18.66
2022-09-07T08:21:12.094Z,18.83
2022-09-07T08:21:46.187Z,18.75
2022-09-07T08:22:34.940Z,18.87
2022-09-07T08:23:09.529Z,18.81
2022-09-07T08:23:50.140Z,18.89
2022-09-07T08:24:30.212Z,18.93
2022-09-07T08:25:11.146Z,18.96
2022-09-07T08:26:00.412Z,19.04
2022-09-07T08:26:41.151Z,19.10
2022-09-07T08:27:25.686Z,19.07
2022-09-07T08:28:08.065Z,19.14
2022-09-07T08:28:49.315Z,19.14
2022-09-07T08:29:33.533Z,19.06
2022-09-07T08:30:17.149Z,19.14
2022-09-07T08:30:58.101Z,19.16
2022-09-07T08:31:38.191Z,19.11
2022-09-07T08:32:18.082Z,19.19
2022-09-07T08:32:58.189Z,19.18
2022-09-07T08:33:38.094Z,19.14
2022-09-07T08:34:18.181Z,19.23
2022-09-07T08:34:58.117Z,19.21
2022-09-07T08:35:38.131Z,19.18
2022-09-07T08:36:25.076Z,19.28
2022-09-07T08:37:05.352Z,19.31
2022-09-07T08:37:45.066Z,19.27
2022-09-07T08:38:25.249Z,19.34
2022-09-07T08:39:06.073Z,19.33
2022-09-07T08:39:46.288Z,19.28
2022-09-07T08:40:27.091Z,19.32
2022-09-07T08:41:08.137Z,19.37
2022-09-07T08:42:10.066Z,19.35
2022-09-07T08:43:44.830Z,19.39
2022-09-07T08:45:07.054Z,19.51
2022-09-07T08:45:52.090Z,19.55
2022-09-07T08:46:47.207Z,19.55
2022-09-07T08:47:44.054Z,19.52
2022-09-07T08:48:22.110Z,19.61
2022-09-07T08:49:12.087Z,19.59
2022-09-07T08:50:25.197Z,19.66
2022-09-07T08:51:31.090Z,19.73
2022-09-07T08:52:12.168Z,19.78
2022-09-07T08:53:08.054Z,19.77
2022-09-07T08:53:50.169Z,19.89
2022-09-07T08:54:37.035Z,19.87
2022-09-07T08:55:34.169Z,19.84
2022-09-07T08:56:37.642Z,19.95
2022-09-07T08:57:23.204Z,19.97
2022-09-07T08:58:54.053Z,19.94
2022-09-07T08:59:56.141Z,20.04
2022-09-07T09:00:38.056Z,20.03
2022-09-07T09:01:37.029Z,20.11
2022-09-07T09:02:30.039Z,20.09
2022-09-07T09:04:33.835Z,20.20
2022-09-07T09:05:16.563Z,20.19
2022-09-07T09:06:38.200Z,20.25
2022-09-07T09:07:13.661Z,20.30
2022-09-07T09:08:20.085Z,20.30
2022-09-07T09:09:37.669Z,20.39
2022-09-07T09:10:56.064Z,20.43
2022-09-07T09:12:15.123Z,20.47
2022-09-07T09:13:25.137Z,20.32
2022-09-07T09:14:46.111Z,20.55
2022-09-07T09:15:51.102Z,20.60
2022-09-07T09:16:45.189Z,20.60
2022-09-07T09:18:03.047Z,20.64
2022-09-07T09:19:43.071Z,20.73
2022-09-07T09:20:29.113Z,20.73
2022-09-07T09:21:22.018Z,20.68
2022-09-07T09:21:56.125Z,20.73
2022-09-07T09:22:43.074Z,20.78
2022-09-07T09:23:23.120Z,20.70
2022-09-07T09:24:23.063Z,20.63
2022-09-07T09:25:26.093Z,20.80
2022-09-07T09:26:42.095Z,20.84
2022-09-07T09:27:36.025Z,20.87
2022-09-07T09:28:34.325Z,20.87
2022-09-07T09:29:33.049Z,20.94
2022-09-07T09:30:35.072Z,20.95
2022-09-07T09:31:42.139Z,20.97
2022-09-07T09:32:57.023Z,21.07
2022-09-07T09:33:52.006Z,21.16
2022-09-07T09:34:49.034Z,21.10
2022-09-07T09:35:49.058Z,21.19
2022-09-07T09:37:09.450Z,21.22
2022-09-07T09:38:05.014Z,21.23
2022-09-07T09:38:59.018Z,21.15
2022-09-07T09:39:55.437Z,21.30
2022-09-07T09:40:52.062Z,21.37
2022-09-07T09:41:53.024Z,21.42
2022-09-07T09:42:49.032Z,21.38
2022-09-07T09:44:08.033Z,21.41
2022-09-07T09:45:02.010Z,21.55
2022-09-07T09:46:17.439Z,21.49
2022-09-07T09:48:35.020Z,21.63
2022-09-07T09:49:39.001Z,21.66
2022-09-07T09:53:00.069Z,21.70
2022-09-07T09:54:00.032Z,21.68
2022-09-07T09:54:47.287Z,21.69
2022-09-07T09:55:36.291Z,21.79
2022-09-07T09:56:17.106Z,21.79
2022-09-07T09:56:59.006Z,21.74
2022-09-07T09:59:05.780Z,21.74
2022-09-07T10:00:14.883Z,21.87
2022-09-07T10:01:23.199Z,21.99
2022-09-07T10:04:42.013Z,22.05
2022-09-07T10:05:42.089Z,22.06
2022-09-07T10:06:24.990Z,22.04
2022-09-07T10:07:28.137Z,22.12
2022-09-07T10:08:09.037Z,22.03
2022-09-07T10:09:08.075Z,22.05
2022-09-07T10:09:53.993Z,22.18
2022-09-07T10:10:35.073Z,22.16
2022-09-07T10:11:17.019Z,22.17
2022-09-07T10:12:06.711Z,22.07
2022-09-07T10:12:48.992Z,22.15
2022-09-07T10:13:39.065Z,22.09
2022-09-07T10:14:32.132Z,22.15
2022-09-07T10:15:07.742Z,22.17
2022-09-07T10:15:49.082Z,22.22
2022-09-07T10:16:23.161Z,22.24
2022-09-07T10:16:58.792Z,22.19
2022-09-07T10:17:53.978Z,22.17
2022-09-07T10:18:51.022Z,22.27
2022-09-07T10:19:30.781Z,22.31
2022-09-07T10:20:43.997Z,22.36
2022-09-07T10:21:33.189Z,22.32
2022-09-07T10:22:51.491Z,22.33
2022-09-07T10:23:27.872Z,22.34
2022-09-07T10:24:21.019Z,22.31
2022-09-07T10:24:54.907Z,22.40
2022-09-07T10:25:50.961Z,22.47
2022-09-07T10:26:34.791Z,22.55
2022-09-07T10:27:53.053Z,22.58
2022-09-07T10:29:06.563Z,22.55
2022-09-07T10:29:45.016Z,22.61
2022-09-07T10:30:19.833Z,22.58
2022-09-07T10:32:12.971Z,22.70
2022-09-07T10:33:09.117Z,22.66
2022-09-07T10:34:38.986Z,22.76
2022-09-07T10:35:40.001Z,22.68
2022-09-07T10:36:49.214Z,22.78
2022-09-07T10:37:58.974Z,22.80
2022-09-07T10:39:01.149Z,22.83
2022-09-07T10:39:44.046Z,22.85
2022-09-07T10:40:58.008Z,22.93
2022-09-07T10:41:43.622Z,22.94
2022-09-07T10:43:20.669Z,22.85
2022-09-07T10:43:50.381Z,22.88
2022-09-07T10:45:27.988Z,22.90
2022-09-07T10:46:12.400Z,22.93
2022-09-07T10:47:10.150Z,23.01
2022-09-07T10:48:09.017Z,23.10
2022-09-07T10:49:15.062Z,23.14
2022-09-07T10:50:23.296Z,23.05
2022-09-07T10:51:14.270Z,23.19
2022-09-07T10:52:23.981Z,23.16
2022-09-07T10:54:29.513Z,23.30
2022-09-07T10:54:43.957Z,23.27
2022-09-07T10:55:39.036Z,23.23
2022-09-07T10:56:48.084Z,23.25
2022-09-07T10:58:01.053Z,23.22
2022-09-07T10:59:02.274Z,23.32
2022-09-07T11:00:21.957Z,23.37
2022-09-07T11:00:55.880Z,23.45